sensor_id;sensor_type;location;lat;lon;timestamp;P1;durP1;ratioP1;P2;durP2;ratioP2
3789;SDS011;1910;49.042;9.028;2023-06-14T00:00:39;3.73;;;3.10;;
3789;SDS011;1910;49.042;9.028;2023-06-14T00:03:06;4.40;;;3.87;;
3789;SDS011;1910;49.042;9.028;2023-06-14T00:05:34;5.73;;;3.80;;
3789;SDS011;1910;49.042;9.028;2023-06-14T00:08:05;4.67;;;3.33;;
3789;SDS011;1910;49.042;9.028;2023-06-14T00:10:33;5.05;;;3.30;;
3789;SDS011;1910;49.042;9.028;2023-06-14T00:13:00;4.47;;;3.25;;
3789;SDS011;1910;49.042;9.028;2023-06-14T00:15:26;6.70;;;4.10;;
3789;SDS011;1910;49.042;9.028;2023-06-14T00:17:53;4.03;;;3.53;;
3789;SDS011;1910;49.042;9.028;2023-06-14T00:20:19;3.80;;;3.25;;
3789;SDS011;1910;49.042;9.028;2023-06-14T00:22:45;5.77;;;3.80;;
3789;SDS011;1910;49.042;9.028;2023-06-14T00:25:11;4.77;;;3.87;;
3789;SDS011;1910;49.042;9.028;2023-06-14T00:27:36;6.67;;;3.67;;
3789;SDS011;1910;49.042;9.028;2023-06-14T00:30:02;5.60;;;3.40;;
3789;SDS011;1910;49.042;9.028;2023-06-14T00:32:28;4.07;;;2.50;;
3789;SDS011;1910;49.042;9.028;2023-06-14T00:34:54;4.90;;;3.40;;
3789;SDS011;1910;49.042;9.028;2023-06-14T00:37:19;4.37;;;2.70;;
3789;SDS011;1910;49.042;9.028;2023-06-14T00:39:45;4.20;;;3.33;;
3789;SDS011;1910;49.042;9.028;2023-06-14T00:42:11;4.77;;;3.73;;
3789;SDS011;1910;49.042;9.028;2023-06-14T00:44:47;6.57;;;4.35;;
3789;SDS011;1910;49.042;9.028;2023-06-14T00:47:12;5.33;;;3.30;;
3789;SDS011;1910;49.042;9.028;2023-06-14T00:49:38;4.10;;;3.70;;
3789;SDS011;1910;49.042;9.028;2023-06-14T00:52:04;5.47;;;3.20;;
3789;SDS011;1910;49.042;9.028;2023-06-14T00:54:31;4.50;;;3.30;;
3789;SDS011;1910;49.042;9.028;2023-06-14T00:56:57;5.43;;;3.10;;
3789;SDS011;1910;49.042;9.028;2023-06-14T00:59:23;6.60;;;4.10;;
3789;SDS011;1910;49.042;9.028;2023-06-14T01:01:48;4.73;;;4.07;;
3789;SDS011;1910;49.042;9.028;2023-06-14T01:04:14;3.43;;;3.17;;
3789;SDS011;1910;49.042;9.028;2023-06-14T01:09:12;6.43;;;3.35;;
3789;SDS011;1910;49.042;9.028;2023-06-14T01:11:54;3.75;;;3.45;;
3789;SDS011;1910;49.042;9.028;2023-06-14T01:14:26;5.90;;;3.38;;
3789;SDS011;1910;49.042;9.028;2023-06-14T01:16:54;7.55;;;3.80;;
3789;SDS011;1910;49.042;9.028;2023-06-14T01:19:22;4.13;;;3.60;;
3789;SDS011;1910;49.042;9.028;2023-06-14T01:21:50;7.85;;;3.72;;
3789;SDS011;1910;49.042;9.028;2023-06-14T01:24:16;6.07;;;3.70;;
3789;SDS011;1910;49.042;9.028;2023-06-14T01:26:44;3.28;;;3.00;;
3789;SDS011;1910;49.042;9.028;2023-06-14T01:29:11;5.03;;;3.80;;
3789;SDS011;1910;49.042;9.028;2023-06-14T01:31:42;6.05;;;3.65;;
3789;SDS011;1910;49.042;9.028;2023-06-14T01:34:08;4.82;;;3.83;;
3789;SDS011;1910;49.042;9.028;2023-06-14T01:36:35;6.63;;;4.10;;
3789;SDS011;1910;49.042;9.028;2023-06-14T01:39:04;5.15;;;4.40;;
3789;SDS011;1910;49.042;9.028;2023-06-14T01:41:31;4.75;;;3.75;;
3789;SDS011;1910;49.042;9.028;2023-06-14T01:43:57;4.43;;;3.40;;
3789;SDS011;1910;49.042;9.028;2023-06-14T01:46:23;6.00;;;3.67;;
3789;SDS011;1910;49.042;9.028;2023-06-14T01:48:49;10.15;;;4.35;;
3789;SDS011;1910;49.042;9.028;2023-06-14T01:51:15;7.13;;;4.67;;
3789;SDS011;1910;49.042;9.028;2023-06-14T01:53:41;6.07;;;3.70;;
3789;SDS011;1910;49.042;9.028;2023-06-14T01:56:06;6.60;;;3.50;;
3789;SDS011;1910;49.042;9.028;2023-06-14T01:58:32;3.43;;;3.13;;
3789;SDS011;1910;49.042;9.028;2023-06-14T02:00:58;4.40;;;3.30;;
3789;SDS011;1910;49.042;9.028;2023-06-14T02:03:25;6.68;;;2.97;;
3789;SDS011;1910;49.042;9.028;2023-06-14T02:05:51;5.80;;;3.37;;
3789;SDS011;1910;49.042;9.028;2023-06-14T02:08:17;4.00;;;3.10;;
3789;SDS011;1910;49.042;9.028;2023-06-14T02:10:42;4.60;;;3.20;;
3789;SDS011;1910;49.042;9.028;2023-06-14T02:13:08;6.03;;;3.97;;
3789;SDS011;1910;49.042;9.028;2023-06-14T02:15:34;5.00;;;3.77;;
3789;SDS011;1910;49.042;9.028;2023-06-14T02:18:01;4.00;;;3.47;;
3789;SDS011;1910;49.042;9.028;2023-06-14T02:20:27;4.57;;;4.10;;
3789;SDS011;1910;49.042;9.028;2023-06-14T02:22:53;4.97;;;3.93;;
3789;SDS011;1910;49.042;9.028;2023-06-14T02:25:19;5.13;;;4.20;;
3789;SDS011;1910;49.042;9.028;2023-06-14T02:27:44;8.80;;;3.57;;
3789;SDS011;1910;49.042;9.028;2023-06-14T02:30:10;4.30;;;3.33;;
3789;SDS011;1910;49.042;9.028;2023-06-14T02:32:36;4.78;;;3.20;;
3789;SDS011;1910;49.042;9.028;2023-06-14T02:35:02;4.87;;;3.47;;
3789;SDS011;1910;49.042;9.028;2023-06-14T02:37:28;5.00;;;3.13;;
3789;SDS011;1910;49.042;9.028;2023-06-14T02:39:55;5.65;;;3.50;;
3789;SDS011;1910;49.042;9.028;2023-06-14T02:42:21;3.60;;;2.75;;
3789;SDS011;1910;49.042;9.028;2023-06-14T02:44:47;3.27;;;2.97;;
3789;SDS011;1910;49.042;9.028;2023-06-14T02:47:16;7.47;;;3.97;;
3789;SDS011;1910;49.042;9.028;2023-06-14T02:49:42;4.75;;;3.50;;
3789;SDS011;1910;49.042;9.028;2023-06-14T02:52:08;3.60;;;3.10;;
3789;SDS011;1910;49.042;9.028;2023-06-14T02:54:34;6.27;;;3.23;;
3789;SDS011;1910;49.042;9.028;2023-06-14T02:56:59;3.93;;;3.53;;
3789;SDS011;1910;49.042;9.028;2023-06-14T02:59:25;4.90;;;3.77;;
3789;SDS011;1910;49.042;9.028;2023-06-14T03:01:51;5.63;;;4.07;;
3789;SDS011;1910;49.042;9.028;2023-06-14T03:04:17;4.93;;;4.00;;
3789;SDS011;1910;49.042;9.028;2023-06-14T03:06:42;7.60;;;4.60;;
3789;SDS011;1910;49.042;9.028;2023-06-14T03:09:09;4.90;;;3.65;;
3789;SDS011;1910;49.042;9.028;2023-06-14T03:11:34;4.60;;;3.13;;
3789;SDS011;1910;49.042;9.028;2023-06-14T03:14:00;5.28;;;3.33;;
3789;SDS011;1910;49.042;9.028;2023-06-14T03:16:28;6.32;;;4.38;;
3789;SDS011;1910;49.042;9.028;2023-06-14T03:18:55;3.88;;;3.42;;
3789;SDS011;1910;49.042;9.028;2023-06-14T03:21:20;4.93;;;3.90;;
3789;SDS011;1910;49.042;9.028;2023-06-14T03:23:47;7.32;;;4.40;;
3789;SDS011;1910;49.042;9.028;2023-06-14T03:26:13;7.32;;;4.65;;
3789;SDS011;1910;49.042;9.028;2023-06-14T03:28:40;9.27;;;4.03;;
3789;SDS011;1910;49.042;9.028;2023-06-14T03:31:06;4.00;;;3.60;;
3789;SDS011;1910;49.042;9.028;2023-06-14T03:33:33;11.07;;;4.28;;
3789;SDS011;1910;49.042;9.028;2023-06-14T03:35:59;5.93;;;2.80;;
3789;SDS011;1910;49.042;9.028;2023-06-14T03:38:26;4.63;;;3.20;;
3789;SDS011;1910;49.042;9.028;2023-06-14T03:40:51;6.37;;;4.30;;
3789;SDS011;1910;49.042;9.028;2023-06-14T03:43:17;8.30;;;4.17;;
3789;SDS011;1910;49.042;9.028;2023-06-14T03:45:43;6.00;;;3.93;;
3789;SDS011;1910;49.042;9.028;2023-06-14T03:48:08;4.77;;;3.60;;
3789;SDS011;1910;49.042;9.028;2023-06-14T03:50:34;7.43;;;4.45;;
3789;SDS011;1910;49.042;9.028;2023-06-14T03:53:03;5.75;;;4.63;;
3789;SDS011;1910;49.042;9.028;2023-06-14T03:55:29;4.47;;;3.70;;
3789;SDS011;1910;49.042;9.028;2023-06-14T03:57:56;7.35;;;4.57;;
3789;SDS011;1910;49.042;9.028;2023-06-14T04:00:22;5.00;;;3.83;;
3789;SDS011;1910;49.042;9.028;2023-06-14T04:02:48;5.35;;;4.65;;
3789;SDS011;1910;49.042;9.028;2023-06-14T04:05:14;7.83;;;4.07;;
3789;SDS011;1910;49.042;9.028;2023-06-14T04:07:42;5.57;;;4.43;;
3789;SDS011;1910;49.042;9.028;2023-06-14T04:10:10;6.45;;;4.45;;
3789;SDS011;1910;49.042;9.028;2023-06-14T04:12:36;6.30;;;4.40;;
3789;SDS011;1910;49.042;9.028;2023-06-14T04:15:02;9.10;;;4.10;;
3789;SDS011;1910;49.042;9.028;2023-06-14T04:17:28;5.63;;;3.85;;
3789;SDS011;1910;49.042;9.028;2023-06-14T04:19:54;4.93;;;3.97;;
3789;SDS011;1910;49.042;9.028;2023-06-14T04:22:20;7.80;;;5.10;;
3789;SDS011;1910;49.042;9.028;2023-06-14T04:24:45;6.40;;;4.60;;
3789;SDS011;1910;49.042;9.028;2023-06-14T04:27:11;5.60;;;3.93;;
3789;SDS011;1910;49.042;9.028;2023-06-14T04:29:39;4.57;;;4.13;;
3789;SDS011;1910;49.042;9.028;2023-06-14T04:32:05;6.70;;;5.17;;
3789;SDS011;1910;49.042;9.028;2023-06-14T04:34:34;7.60;;;4.83;;
3789;SDS011;1910;49.042;9.028;2023-06-14T04:37:02;7.13;;;4.87;;
3789;SDS011;1910;49.042;9.028;2023-06-14T04:39:28;7.37;;;4.53;;
3789;SDS011;1910;49.042;9.028;2023-06-14T04:41:54;4.93;;;4.50;;
3789;SDS011;1910;49.042;9.028;2023-06-14T04:44:22;6.50;;;5.30;;
3789;SDS011;1910;49.042;9.028;2023-06-14T04:46:56;4.93;;;4.47;;
3789;SDS011;1910;49.042;9.028;2023-06-14T04:49:23;6.57;;;5.37;;
3789;SDS011;1910;49.042;9.028;2023-06-14T04:51:51;6.30;;;5.70;;
3789;SDS011;1910;49.042;9.028;2023-06-14T04:54:22;6.10;;;4.63;;
3789;SDS011;1910;49.042;9.028;2023-06-14T04:56:48;5.90;;;5.40;;
3789;SDS011;1910;49.042;9.028;2023-06-14T04:59:14;5.83;;;4.83;;
3789;SDS011;1910;49.042;9.028;2023-06-14T05:01:42;8.93;;;5.77;;
3789;SDS011;1910;49.042;9.028;2023-06-14T05:04:12;5.50;;;5.00;;
3789;SDS011;1910;49.042;9.028;2023-06-14T05:06:38;5.37;;;4.77;;
3789;SDS011;1910;49.042;9.028;2023-06-14T05:09:04;7.00;;;6.40;;
3789;SDS011;1910;49.042;9.028;2023-06-14T05:11:30;6.17;;;5.60;;
3789;SDS011;1910;49.042;9.028;2023-06-14T05:13:56;6.07;;;5.47;;
3789;SDS011;1910;49.042;9.028;2023-06-14T05:16:23;6.03;;;5.50;;
3789;SDS011;1910;49.042;9.028;2023-06-14T05:18:50;7.63;;;7.00;;
3789;SDS011;1910;49.042;9.028;2023-06-14T05:21:17;7.23;;;6.73;;
3789;SDS011;1910;49.042;9.028;2023-06-14T05:23:43;7.50;;;6.80;;
3789;SDS011;1910;49.042;9.028;2023-06-14T05:26:10;7.70;;;6.90;;
3789;SDS011;1910;49.042;9.028;2023-06-14T05:28:35;6.87;;;6.27;;
3789;SDS011;1910;49.042;9.028;2023-06-14T05:31:01;7.40;;;6.80;;
3789;SDS011;1910;49.042;9.028;2023-06-14T05:33:27;8.10;;;7.50;;
3789;SDS011;1910;49.042;9.028;2023-06-14T05:35:54;8.00;;;7.30;;
3789;SDS011;1910;49.042;9.028;2023-06-14T05:38:20;7.03;;;6.40;;
3789;SDS011;1910;49.042;9.028;2023-06-14T05:40:46;8.03;;;7.33;;
3789;SDS011;1910;49.042;9.028;2023-06-14T05:43:12;8.30;;;7.50;;
3789;SDS011;1910;49.042;9.028;2023-06-14T05:45:38;8.50;;;7.80;;
3789;SDS011;1910;49.042;9.028;2023-06-14T05:48:04;8.50;;;7.80;;
3789;SDS011;1910;49.042;9.028;2023-06-14T05:50:30;8.90;;;8.07;;
3789;SDS011;1910;49.042;9.028;2023-06-14T05:52:56;9.00;;;8.30;;
3789;SDS011;1910;49.042;9.028;2023-06-14T05:55:22;8.40;;;7.60;;
3789;SDS011;1910;49.042;9.028;2023-06-14T05:57:48;7.60;;;6.93;;
3789;SDS011;1910;49.042;9.028;2023-06-14T06:00:14;7.33;;;6.80;;
3789;SDS011;1910;49.042;9.028;2023-06-14T06:02:43;8.00;;;7.40;;
3789;SDS011;1910;49.042;9.028;2023-06-14T06:05:10;7.93;;;7.13;;
3789;SDS011;1910;49.042;9.028;2023-06-14T06:07:36;8.03;;;7.43;;
3789;SDS011;1910;49.042;9.028;2023-06-14T06:10:03;7.33;;;6.73;;
3789;SDS011;1910;49.042;9.028;2023-06-14T06:12:29;7.77;;;6.97;;
3789;SDS011;1910;49.042;9.028;2023-06-14T06:14:55;8.00;;;6.93;;
3789;SDS011;1910;49.042;9.028;2023-06-14T06:17:21;8.50;;;7.80;;
3789;SDS011;1910;49.042;9.028;2023-06-14T06:19:47;9.80;;;7.50;;
3789;SDS011;1910;49.042;9.028;2023-06-14T06:22:13;6.93;;;6.33;;
3789;SDS011;1910;49.042;9.028;2023-06-14T06:24:39;7.80;;;7.20;;
3789;SDS011;1910;49.042;9.028;2023-06-14T06:27:05;9.37;;;8.47;;
3789;SDS011;1910;49.042;9.028;2023-06-14T06:29:33;11.07;;;8.00;;
3789;SDS011;1910;49.042;9.028;2023-06-14T06:31:58;10.53;;;7.30;;
3789;SDS011;1910;49.042;9.028;2023-06-14T06:34:24;7.10;;;6.40;;
3789;SDS011;1910;49.042;9.028;2023-06-14T06:36:50;8.40;;;7.60;;
3789;SDS011;1910;49.042;9.028;2023-06-14T06:39:16;8.17;;;7.43;;
3789;SDS011;1910;49.042;9.028;2023-06-14T06:41:42;6.20;;;5.73;;
3789;SDS011;1910;49.042;9.028;2023-06-14T06:44:07;7.77;;;6.97;;
3789;SDS011;1910;49.042;9.028;2023-06-14T06:46:35;8.50;;;7.73;;
3789;SDS011;1910;49.042;9.028;2023-06-14T06:49:05;7.00;;;6.30;;
3789;SDS011;1910;49.042;9.028;2023-06-14T06:51:31;6.67;;;6.07;;
3789;SDS011;1910;49.042;9.028;2023-06-14T06:53:57;9.07;;;7.10;;
3789;SDS011;1910;49.042;9.028;2023-06-14T06:56:23;6.57;;;5.87;;
3789;SDS011;1910;49.042;9.028;2023-06-14T06:58:49;22.97;;;7.27;;
3789;SDS011;1910;49.042;9.028;2023-06-14T07:01:16;8.43;;;6.80;;
3789;SDS011;1910;49.042;9.028;2023-06-14T07:03:42;7.60;;;6.93;;
3789;SDS011;1910;49.042;9.028;2023-06-14T07:06:08;8.73;;;7.87;;
3789;SDS011;1910;49.042;9.028;2023-06-14T07:08:34;7.57;;;6.90;;
3789;SDS011;1910;49.042;9.028;2023-06-14T07:11:00;8.40;;;7.70;;
3789;SDS011;1910;49.042;9.028;2023-06-14T07:13:27;8.37;;;7.73;;
3789;SDS011;1910;49.042;9.028;2023-06-14T07:15:59;7.90;;;7.30;;
3789;SDS011;1910;49.042;9.028;2023-06-14T07:18:29;8.37;;;7.57;;
3789;SDS011;1910;49.042;9.028;2023-06-14T07:20:55;8.63;;;7.30;;
3789;SDS011;1910;49.042;9.028;2023-06-14T07:23:22;8.03;;;7.43;;
3789;SDS011;1910;49.042;9.028;2023-06-14T07:25:48;8.43;;;7.80;;
3789;SDS011;1910;49.042;9.028;2023-06-14T07:28:16;8.40;;;7.50;;
3789;SDS011;1910;49.042;9.028;2023-06-14T07:30:42;7.80;;;7.10;;
3789;SDS011;1910;49.042;9.028;2023-06-14T07:33:08;7.40;;;6.70;;
3789;SDS011;1910;49.042;9.028;2023-06-14T07:35:36;8.90;;;8.20;;
3789;SDS011;1910;49.042;9.028;2023-06-14T07:38:02;9.07;;;8.23;;
3789;SDS011;1910;49.042;9.028;2023-06-14T07:40:28;8.50;;;7.63;;
3789;SDS011;1910;49.042;9.028;2023-06-14T07:42:54;8.57;;;7.80;;
3789;SDS011;1910;49.042;9.028;2023-06-14T07:45:20;8.00;;;7.30;;
3789;SDS011;1910;49.042;9.028;2023-06-14T07:47:46;8.77;;;7.93;;
3789;SDS011;1910;49.042;9.028;2023-06-14T07:50:12;8.40;;;7.50;;
3789;SDS011;1910;49.042;9.028;2023-06-14T07:52:38;7.47;;;6.87;;
3789;SDS011;1910;49.042;9.028;2023-06-14T07:55:04;8.50;;;7.80;;
3789;SDS011;1910;49.042;9.028;2023-06-14T07:57:30;8.33;;;7.80;;
3789;SDS011;1910;49.042;9.028;2023-06-14T07:59:56;7.73;;;7.03;;
3789;SDS011;1910;49.042;9.028;2023-06-14T08:02:22;9.63;;;8.83;;
3789;SDS011;1910;49.042;9.028;2023-06-14T08:04:48;9.00;;;8.40;;
3789;SDS011;1910;49.042;9.028;2023-06-14T08:07:14;9.67;;;8.77;;
3789;SDS011;1910;49.042;9.028;2023-06-14T08:09:40;9.27;;;8.37;;
3789;SDS011;1910;49.042;9.028;2023-06-14T08:12:06;8.40;;;7.73;;
3789;SDS011;1910;49.042;9.028;2023-06-14T08:14:34;8.03;;;7.43;;
3789;SDS011;1910;49.042;9.028;2023-06-14T08:17:00;8.97;;;8.37;;
3789;SDS011;1910;49.042;9.028;2023-06-14T08:19:26;8.40;;;7.63;;
3789;SDS011;1910;49.042;9.028;2023-06-14T08:21:52;10.53;;;8.53;;
3789;SDS011;1910;49.042;9.028;2023-06-14T08:24:23;8.90;;;8.00;;
3789;SDS011;1910;49.042;9.028;2023-06-14T08:26:52;8.57;;;7.87;;
3789;SDS011;1910;49.042;9.028;2023-06-14T08:29:18;7.80;;;7.30;;
3789;SDS011;1910;49.042;9.028;2023-06-14T08:31:44;8.87;;;8.17;;
3789;SDS011;1910;49.042;9.028;2023-06-14T08:34:10;7.67;;;6.97;;
3789;SDS011;1910;49.042;9.028;2023-06-14T08:36:39;8.87;;;8.13;;
3789;SDS011;1910;49.042;9.028;2023-06-14T08:39:06;7.70;;;7.07;;
3789;SDS011;1910;49.042;9.028;2023-06-14T08:41:34;8.00;;;7.40;;
3789;SDS011;1910;49.042;9.028;2023-06-14T08:44:00;9.17;;;8.27;;
3789;SDS011;1910;49.042;9.028;2023-06-14T08:46:26;8.07;;;7.27;;
3789;SDS011;1910;49.042;9.028;2023-06-14T08:48:52;8.40;;;7.60;;
3789;SDS011;1910;49.042;9.028;2023-06-14T08:51:23;7.60;;;7.10;;
3789;SDS011;1910;49.042;9.028;2023-06-14T08:53:55;8.73;;;7.93;;
3789;SDS011;1910;49.042;9.028;2023-06-14T08:56:23;8.90;;;8.10;;
3789;SDS011;1910;49.042;9.028;2023-06-14T08:58:55;7.27;;;6.70;;
3789;SDS011;1910;49.042;9.028;2023-06-14T09:01:22;7.03;;;6.50;;
3789;SDS011;1910;49.042;9.028;2023-06-14T09:03:49;7.50;;;6.80;;
3789;SDS011;1910;49.042;9.028;2023-06-14T09:06:16;8.00;;;7.30;;
3789;SDS011;1910;49.042;9.028;2023-06-14T09:08:44;7.90;;;7.20;;
3789;SDS011;1910;49.042;9.028;2023-06-14T09:11:11;7.77;;;7.13;;
3789;SDS011;1910;49.042;9.028;2023-06-14T09:13:38;7.70;;;7.00;;
3789;SDS011;1910;49.042;9.028;2023-06-14T09:16:04;8.47;;;7.77;;
3789;SDS011;1910;49.042;9.028;2023-06-14T09:18:41;7.50;;;6.90;;
3789;SDS011;1910;49.042;9.028;2023-06-14T09:21:09;7.57;;;6.97;;
3789;SDS011;1910;49.042;9.028;2023-06-14T09:23:39;7.70;;;6.90;;
3789;SDS011;1910;49.042;9.028;2023-06-14T09:26:07;6.33;;;5.83;;
3789;SDS011;1910;49.042;9.028;2023-06-14T09:28:33;6.13;;;5.63;;
3789;SDS011;1910;49.042;9.028;2023-06-14T09:31:00;7.20;;;6.70;;
3789;SDS011;1910;49.042;9.028;2023-06-14T09:33:26;7.30;;;6.70;;
3789;SDS011;1910;49.042;9.028;2023-06-14T09:35:53;7.30;;;6.70;;
3789;SDS011;1910;49.042;9.028;2023-06-14T09:38:20;7.57;;;6.97;;
3789;SDS011;1910;49.042;9.028;2023-06-14T09:40:46;7.53;;;7.03;;
3789;SDS011;1910;49.042;9.028;2023-06-14T09:43:11;7.50;;;6.90;;
3789;SDS011;1910;49.042;9.028;2023-06-14T09:45:38;7.60;;;6.80;;
3789;SDS011;1910;49.042;9.028;2023-06-14T09:48:05;8.37;;;7.47;;
3789;SDS011;1910;49.042;9.028;2023-06-14T09:50:32;7.97;;;7.33;;
3789;SDS011;1910;49.042;9.028;2023-06-14T09:53:00;8.03;;;7.43;;
3789;SDS011;1910;49.042;9.028;2023-06-14T09:55:30;6.73;;;6.10;;
3789;SDS011;1910;49.042;9.028;2023-06-14T09:57:56;7.00;;;6.50;;
3789;SDS011;1910;49.042;9.028;2023-06-14T10:00:24;7.97;;;7.30;;
3789;SDS011;1910;49.042;9.028;2023-06-14T10:02:53;8.03;;;7.43;;
3789;SDS011;1910;49.042;9.028;2023-06-14T10:05:25;7.63;;;7.23;;
3789;SDS011;1910;49.042;9.028;2023-06-14T10:07:56;7.70;;;7.00;;
3789;SDS011;1910;49.042;9.028;2023-06-14T10:10:25;7.53;;;6.50;;
3789;SDS011;1910;49.042;9.028;2023-06-14T10:12:51;7.60;;;6.90;;
3789;SDS011;1910;49.042;9.028;2023-06-14T10:15:23;9.37;;;6.63;;
3789;SDS011;1910;49.042;9.028;2023-06-14T10:18:03;6.80;;;6.20;;
3789;SDS011;1910;49.042;9.028;2023-06-14T10:20:35;7.07;;;6.47;;
3789;SDS011;1910;49.042;9.028;2023-06-14T10:23:16;6.20;;;5.60;;
3789;SDS011;1910;49.042;9.028;2023-06-14T10:25:43;6.77;;;6.27;;
3789;SDS011;1910;49.042;9.028;2023-06-14T10:28:14;6.70;;;6.13;;
3789;SDS011;1910;49.042;9.028;2023-06-14T10:31:29;6.77;;;6.30;;
3789;SDS011;1910;49.042;9.028;2023-06-14T10:33:30;8.93;;;6.50;;
3789;SDS011;1910;49.042;9.028;2023-06-14T10:38:36;6.27;;;5.67;;
3789;SDS011;1910;49.042;9.028;2023-06-14T10:41:03;6.50;;;5.57;;
3789;SDS011;1910;49.042;9.028;2023-06-14T10:43:30;5.53;;;5.13;;
3789;SDS011;1910;49.042;9.028;2023-06-14T10:48:41;5.77;;;5.27;;
3789;SDS011;1910;49.042;9.028;2023-06-14T10:51:15;5.30;;;4.90;;
3789;SDS011;1910;49.042;9.028;2023-06-14T10:53:46;5.70;;;5.27;;
3789;SDS011;1910;49.042;9.028;2023-06-14T10:56:50;5.90;;;5.27;;
3789;SDS011;1910;49.042;9.028;2023-06-14T10:59:11;5.47;;;4.90;;
3789;SDS011;1910;49.042;9.028;2023-06-14T11:01:38;5.63;;;5.13;;
3789;SDS011;1910;49.042;9.028;2023-06-14T11:04:10;5.13;;;4.70;;
3789;SDS011;1910;49.042;9.028;2023-06-14T11:06:44;5.00;;;4.50;;
3789;SDS011;1910;49.042;9.028;2023-06-14T11:12:20;4.53;;;4.13;;
3789;SDS011;1910;49.042;9.028;2023-06-14T11:14:47;6.07;;;5.00;;
3789;SDS011;1910;49.042;9.028;2023-06-14T11:17:13;7.63;;;4.93;;
3789;SDS011;1910;49.042;9.028;2023-06-14T11:19:38;4.77;;;4.40;;
3789;SDS011;1910;49.042;9.028;2023-06-14T11:22:04;5.23;;;4.73;;
3789;SDS011;1910;49.042;9.028;2023-06-14T11:24:32;4.83;;;4.43;;
3789;SDS011;1910;49.042;9.028;2023-06-14T11:26:58;5.23;;;4.70;;
3789;SDS011;1910;49.042;9.028;2023-06-14T11:29:24;7.60;;;4.63;;
3789;SDS011;1910;49.042;9.028;2023-06-14T11:31:50;5.60;;;5.10;;
3789;SDS011;1910;49.042;9.028;2023-06-14T11:34:16;4.93;;;4.50;;
3789;SDS011;1910;49.042;9.028;2023-06-14T11:36:42;5.63;;;5.23;;
3789;SDS011;1910;49.042;9.028;2023-06-14T11:39:08;4.90;;;4.40;;
3789;SDS011;1910;49.042;9.028;2023-06-14T11:41:38;5.20;;;4.80;;
3789;SDS011;1910;49.042;9.028;2023-06-14T11:44:06;7.57;;;4.70;;
3789;SDS011;1910;49.042;9.028;2023-06-14T11:46:32;9.37;;;4.90;;
3789;SDS011;1910;49.042;9.028;2023-06-14T11:48:57;5.00;;;4.30;;
3789;SDS011;1910;49.042;9.028;2023-06-14T11:51:23;4.13;;;3.83;;
3789;SDS011;1910;49.042;9.028;2023-06-14T11:53:49;5.30;;;4.80;;
3789;SDS011;1910;49.042;9.028;2023-06-14T11:56:15;5.13;;;4.60;;
3789;SDS011;1910;49.042;9.028;2023-06-14T11:58:44;5.20;;;4.80;;
3789;SDS011;1910;49.042;9.028;2023-06-14T12:01:14;5.97;;;5.33;;
3789;SDS011;1910;49.042;9.028;2023-06-14T12:03:47;5.03;;;4.47;;
3789;SDS011;1910;49.042;9.028;2023-06-14T12:06:13;6.87;;;5.03;;
3789;SDS011;1910;49.042;9.028;2023-06-14T12:08:39;7.53;;;5.00;;
3789;SDS011;1910;49.042;9.028;2023-06-14T12:11:06;5.90;;;5.30;;
3789;SDS011;1910;49.042;9.028;2023-06-14T12:13:37;5.47;;;4.40;;
3789;SDS011;1910;49.042;9.028;2023-06-14T12:16:04;4.93;;;4.47;;
3789;SDS011;1910;49.042;9.028;2023-06-14T12:18:34;8.23;;;4.70;;
3789;SDS011;1910;49.042;9.028;2023-06-14T12:21:00;5.07;;;4.63;;
3789;SDS011;1910;49.042;9.028;2023-06-14T12:23:46;4.63;;;4.23;;
3789;SDS011;1910;49.042;9.028;2023-06-14T12:26:17;10.10;;;5.60;;
3789;SDS011;1910;49.042;9.028;2023-06-14T12:28:44;5.07;;;4.67;;
3789;SDS011;1910;49.042;9.028;2023-06-14T12:31:12;5.73;;;5.20;;
3789;SDS011;1910;49.042;9.028;2023-06-14T12:33:39;5.60;;;5.10;;
3789;SDS011;1910;49.042;9.028;2023-06-14T12:36:09;5.33;;;4.83;;
3789;SDS011;1910;49.042;9.028;2023-06-14T12:38:35;5.67;;;5.17;;
3789;SDS011;1910;49.042;9.028;2023-06-14T12:41:02;4.50;;;4.20;;
3789;SDS011;1910;49.042;9.028;2023-06-14T12:43:28;6.20;;;4.73;;
3789;SDS011;1910;49.042;9.028;2023-06-14T12:45:55;5.60;;;5.13;;
3789;SDS011;1910;49.042;9.028;2023-06-14T12:48:20;9.03;;;4.57;;
3789;SDS011;1910;49.042;9.028;2023-06-14T12:50:47;5.90;;;5.30;;
3789;SDS011;1910;49.042;9.028;2023-06-14T12:53:13;5.30;;;4.80;;
3789;SDS011;1910;49.042;9.028;2023-06-14T12:55:39;5.30;;;4.80;;
3789;SDS011;1910;49.042;9.028;2023-06-14T12:58:04;5.13;;;4.63;;
3789;SDS011;1910;49.042;9.028;2023-06-14T13:00:30;4.70;;;4.30;;
3789;SDS011;1910;49.042;9.028;2023-06-14T13:02:56;4.83;;;4.43;;
3789;SDS011;1910;49.042;9.028;2023-06-14T13:05:22;6.20;;;5.07;;
3789;SDS011;1910;49.042;9.028;2023-06-14T13:07:48;5.30;;;4.87;;
3789;SDS011;1910;49.042;9.028;2023-06-14T13:10:14;4.93;;;4.33;;
3789;SDS011;1910;49.042;9.028;2023-06-14T13:12:40;5.70;;;5.20;;
3789;SDS011;1910;49.042;9.028;2023-06-14T13:15:06;4.93;;;4.53;;
3789;SDS011;1910;49.042;9.028;2023-06-14T13:17:33;5.67;;;5.07;;
3789;SDS011;1910;49.042;9.028;2023-06-14T13:20:03;5.23;;;4.83;;
3789;SDS011;1910;49.042;9.028;2023-06-14T13:22:29;6.70;;;6.10;;
3789;SDS011;1910;49.042;9.028;2023-06-14T13:24:55;5.83;;;5.23;;
3789;SDS011;1910;49.042;9.028;2023-06-14T13:27:21;6.47;;;4.80;;
3789;SDS011;1910;49.042;9.028;2023-06-14T13:29:47;5.00;;;4.50;;
3789;SDS011;1910;49.042;9.028;2023-06-14T13:32:12;5.47;;;4.97;;
3789;SDS011;1910;49.042;9.028;2023-06-14T13:34:38;5.53;;;5.00;;
3789;SDS011;1910;49.042;9.028;2023-06-14T13:37:05;6.23;;;5.13;;
3789;SDS011;1910;49.042;9.028;2023-06-14T13:39:32;5.00;;;4.50;;
3789;SDS011;1910;49.042;9.028;2023-06-14T13:41:57;5.53;;;4.90;;
3789;SDS011;1910;49.042;9.028;2023-06-14T13:44:23;5.60;;;5.10;;
3789;SDS011;1910;49.042;9.028;2023-06-14T13:46:50;4.37;;;3.80;;
3789;SDS011;1910;49.042;9.028;2023-06-14T13:49:15;5.10;;;4.60;;
3789;SDS011;1910;49.042;9.028;2023-06-14T13:51:41;4.97;;;4.33;;
3789;SDS011;1910;49.042;9.028;2023-06-14T13:54:08;4.63;;;3.97;;
3789;SDS011;1910;49.042;9.028;2023-06-14T13:56:34;4.67;;;4.27;;
3789;SDS011;1910;49.042;9.028;2023-06-14T13:59:00;5.30;;;4.90;;
3789;SDS011;1910;49.042;9.028;2023-06-14T14:01:26;5.20;;;4.80;;
3789;SDS011;1910;49.042;9.028;2023-06-14T14:03:53;5.10;;;4.70;;
3789;SDS011;1910;49.042;9.028;2023-06-14T14:06:19;5.67;;;4.47;;
3789;SDS011;1910;49.042;9.028;2023-06-14T14:08:45;4.73;;;4.33;;
3789;SDS011;1910;49.042;9.028;2023-06-14T14:11:11;5.40;;;4.90;;
3789;SDS011;1910;49.042;9.028;2023-06-14T14:13:37;4.63;;;4.23;;
3789;SDS011;1910;49.042;9.028;2023-06-14T14:16:04;5.00;;;4.60;;
3789;SDS011;1910;49.042;9.028;2023-06-14T14:18:30;6.40;;;4.50;;
3789;SDS011;1910;49.042;9.028;2023-06-14T14:20:57;7.43;;;5.67;;
3789;SDS011;1910;49.042;9.028;2023-06-14T14:23:23;5.27;;;4.40;;
3789;SDS011;1910;49.042;9.028;2023-06-14T14:25:49;4.83;;;4.43;;
3789;SDS011;1910;49.042;9.028;2023-06-14T14:28:15;5.07;;;4.57;;
3789;SDS011;1910;49.042;9.028;2023-06-14T14:30:43;8.07;;;4.70;;
3789;SDS011;1910;49.042;9.028;2023-06-14T14:33:09;4.80;;;4.40;;
3789;SDS011;1910;49.042;9.028;2023-06-14T14:35:40;4.13;;;3.83;;
3789;SDS011;1910;49.042;9.028;2023-06-14T14:38:07;5.00;;;4.53;;
3789;SDS011;1910;49.042;9.028;2023-06-14T14:40:32;7.40;;;4.70;;
3789;SDS011;1910;49.042;9.028;2023-06-14T14:42:58;5.30;;;4.33;;
3789;SDS011;1910;49.042;9.028;2023-06-14T14:45:24;4.97;;;4.40;;
3789;SDS011;1910;49.042;9.028;2023-06-14T14:47:52;5.40;;;4.70;;
3789;SDS011;1910;49.042;9.028;2023-06-14T14:50:18;4.97;;;4.47;;
3789;SDS011;1910;49.042;9.028;2023-06-14T14:52:43;4.90;;;4.47;;
3789;SDS011;1910;49.042;9.028;2023-06-14T14:55:11;4.57;;;4.17;;
3789;SDS011;1910;49.042;9.028;2023-06-14T14:57:37;7.00;;;4.73;;
3789;SDS011;1910;49.042;9.028;2023-06-14T15:00:03;6.13;;;4.47;;
3789;SDS011;1910;49.042;9.028;2023-06-14T15:02:30;4.57;;;4.17;;
3789;SDS011;1910;49.042;9.028;2023-06-14T15:04:56;5.40;;;4.83;;
3789;SDS011;1910;49.042;9.028;2023-06-14T15:07:26;5.47;;;4.97;;
3789;SDS011;1910;49.042;9.028;2023-06-14T15:09:52;5.37;;;4.70;;
3789;SDS011;1910;49.042;9.028;2023-06-14T15:12:18;4.10;;;3.80;;
3789;SDS011;1910;49.042;9.028;2023-06-14T15:14:45;5.10;;;4.70;;
3789;SDS011;1910;49.042;9.028;2023-06-14T15:17:11;5.20;;;4.20;;
3789;SDS011;1910;49.042;9.028;2023-06-14T15:19:37;4.90;;;4.50;;
3789;SDS011;1910;49.042;9.028;2023-06-14T15:22:04;5.83;;;5.23;;
3789;SDS011;1910;49.042;9.028;2023-06-14T15:24:30;5.37;;;3.90;;